createdAt,value
2023-01-31T00:01:53.117Z,98290.20
2023-01-31T00:07:00.935Z,98289.08
2023-01-31T00:12:09.051Z,98282.34
2023-01-31T00:17:17.037Z,98287.94
2023-01-31T00:22:24.835Z,98288.55
2023-01-31T00:27:32.510Z,98293.38
2023-01-31T00:32:39.957Z,98288.02
2023-01-31T00:37:47.841Z,98304.58
2023-01-31T00:42:55.487Z,98298.52
2023-01-31T00:48:03.141Z,98303.50
2023-01-31T00:53:10.871Z,98306.20
2023-01-31T00:58:19.414Z,98302.73
2023-01-31T01:03:27.171Z,98310.79
2023-01-31T01:08:37.167Z,98318.59
2023-01-31T01:13:45.451Z,98335.08
2023-01-31T01:18:55.591Z,98345.75
2023-01-31T01:24:04.537Z,98339.66
2023-01-31T01:29:16.905Z,98333.45
2023-01-31T01:34:24.609Z,98334.27
2023-01-31T01:39:32.344Z,98331.80
2023-01-31T01:44:52.472Z,98339.00
2023-01-31T01:50:04.285Z,98349.54
2023-01-31T01:55:19.986Z,98356.14
2023-01-31T02:00:30.205Z,98355.83
2023-01-31T02:05:44.039Z,98365.38
2023-01-31T02:10:57.400Z,98371.05
2023-01-31T02:16:05.323Z,98373.39
2023-01-31T02:21:51.436Z,98376.85
2023-01-31T02:27:31.177Z,98381.50
2023-01-31T02:33:04.076Z,98386.08
2023-01-31T02:38:26.599Z,98391.34
2023-01-31T02:44:10.921Z,98398.83
2023-01-31T02:49:35.759Z,98414.19
2023-01-31T02:55:03.516Z,98423.27
2023-01-31T03:00:15.006Z,98437.98
2023-01-31T03:05:23.747Z,98457.64
2023-01-31T03:10:46.155Z,98462.00
2023-01-31T03:19:14.331Z,98467.57
2023-01-31T03:24:26.897Z,98467.09
2023-01-31T03:29:39.591Z,98470.60
2023-01-31T03:34:48.325Z,98479.52
2023-01-31T03:40:01.584Z,98493.92
2023-01-31T03:55:04.639Z,98512.55
2023-01-31T04:00:16.889Z,98520.51
2023-01-31T04:05:30.722Z,98523.84
2023-01-31T04:10:38.740Z,98529.83
2023-01-31T04:15:46.268Z,98538.03
2023-01-31T04:20:53.552Z,98540.09
2023-01-31T04:26:01.167Z,98546.02
2023-01-31T04:31:09.657Z,98546.42
2023-01-31T04:36:17.289Z,98551.96
2023-01-31T04:41:24.723Z,98560.52
2023-01-31T04:46:34.702Z,98573.13
2023-01-31T04:51:42.502Z,98581.95
2023-01-31T04:56:49.914Z,98596.02
2023-01-31T05:01:55.478Z,98606.21
2023-01-31T05:07:02.782Z,98616.63
2023-01-31T05:12:12.023Z,98623.36
2023-01-31T05:17:26.591Z,98637.24
2023-01-31T05:22:34.229Z,98646.05
2023-01-31T05:27:41.958Z,98650.89
2023-01-31T05:32:49.983Z,98658.78
2023-01-31T05:37:58.912Z,98661.75
2023-01-31T05:43:06.592Z,98669.59
2023-01-31T05:48:14.327Z,98673.85
2023-01-31T05:53:22.957Z,98681.98
2023-01-31T05:58:30.879Z,98699.35
2023-01-31T06:03:39.104Z,98706.92
2023-01-31T06:08:46.808Z,98715.39
2023-01-31T06:13:58.511Z,98726.64
2023-01-31T06:19:07.228Z,98735.89
2023-01-31T06:24:14.337Z,98748.37
2023-01-31T06:29:19.841Z,98759.58
2023-01-31T06:34:27.165Z,98772.97
2023-01-31T06:39:34.286Z,98780.38
2023-01-31T06:44:42.861Z,98781.65
2023-01-31T06:49:50.165Z,98796.29
2023-01-31T06:54:58.094Z,98797.91
2023-01-31T07:00:06.955Z,98804.64
2023-01-31T07:05:14.374Z,98814.36
2023-01-31T07:10:22.169Z,98822.80
2023-01-31T07:15:30.306Z,98833.08
2023-01-31T07:20:37.708Z,98846.39
2023-01-31T07:25:45.093Z,98855.19
2023-01-31T07:30:52.425Z,98860.78
2023-01-31T07:35:59.990Z,98874.66
2023-01-31T07:41:09.003Z,98876.45
2023-01-31T07:46:17.070Z,98879.68
2023-01-31T07:51:24.382Z,98886.23
2023-01-31T07:56:32.251Z,98884.58
2023-01-31T08:01:57.241Z,98889.27
2023-01-31T08:07:07.413Z,98896.62
2023-01-31T08:12:14.846Z,98899.27
2023-01-31T08:17:23.164Z,98906.75
2023-01-31T08:22:30.539Z,98906.44
2023-01-31T08:27:38.051Z,98911.77
2023-01-31T08:32:45.921Z,98927.38
2023-01-31T08:37:55.342Z,98938.04
2023-01-31T08:43:05.800Z,98945.27
2023-01-31T08:48:12.651Z,98956.48
2023-01-31T08:53:19.684Z,98957.65
2023-01-31T08:58:27.144Z,98961.61
2023-01-31T09:03:34.442Z,98967.94
2023-01-31T09:08:41.500Z,98971.80
2023-01-31T09:13:51.792Z,98976.34
2023-01-31T09:18:59.322Z,98980.73
2023-01-31T09:24:07.620Z,98986.56
2023-01-31T09:29:17.529Z,98981.77
2023-01-31T09:34:25.249Z,98978.00
2023-01-31T09:39:32.971Z,98977.60
2023-01-31T09:44:45.445Z,98978.42
2023-01-31T09:49:57.703Z,98985.11
2023-01-31T09:55:05.068Z,98985.77
2023-01-31T10:00:24.287Z,98988.25
2023-01-31T10:05:39.717Z,98992.58
2023-01-31T10:10:52.476Z,98988.55
2023-01-31T10:16:04.838Z,98985.23
2023-01-31T10:21:16.363Z,98979.99
2023-01-31T10:26:29.266Z,98976.39
2023-01-31T10:31:44.197Z,98976.85
2023-01-31T10:36:57.675Z,98975.19
2023-01-31T10:42:19.573Z,98975.13
2023-01-31T10:47:33.126Z,98982.98
2023-01-31T10:53:05.118Z,98997.13
2023-01-31T10:58:18.807Z,99003.05
2023-01-31T11:03:26.321Z,98992.73
2023-01-31T11:08:41.937Z,98992.17
2023-01-31T11:14:01.046Z,98984.08
2023-01-31T11:19:21.104Z,98984.72
2023-01-31T11:24:31.300Z,98982.96
2023-01-31T11:29:43.575Z,98981.72
2023-01-31T11:35:01.177Z,98979.08
2023-01-31T11:40:28.205Z,98985.98
2023-01-31T11:45:39.103Z,98991.22
2023-01-31T11:50:52.407Z,98992.38
2023-01-31T11:56:10.239Z,98990.16
2023-01-31T12:01:22.054Z,98981.52
2023-01-31T12:06:36.217Z,98988.14
2023-01-31T12:11:54.344Z,98992.20
2023-01-31T12:17:04.438Z,98985.56
2023-01-31T12:22:20.032Z,98983.50
2023-01-31T12:27:41.907Z,98974.44
2023-01-31T12:33:01.092Z,98969.68
2023-01-31T12:38:19.649Z,98963.05
2023-01-31T12:43:57.555Z,98957.05
2023-01-31T12:49:16.748Z,98959.25
2023-01-31T12:54:42.513Z,98954.73
2023-01-31T13:00:05.991Z,98957.36
2023-01-31T13:05:28.488Z,98953.29
2023-01-31T13:10:42.293Z,98943.73
2023-01-31T13:15:54.906Z,98944.66
2023-01-31T13:21:06.555Z,98938.48
2023-01-31T13:26:18.883Z,98937.86
2023-01-31T13:31:29.564Z,98937.07
2023-01-31T13:36:43.122Z,98937.98
2023-01-31T13:41:51.362Z,98936.02
2023-01-31T13:47:05.037Z,98938.30
2023-01-31T13:52:18.885Z,98936.38
2023-01-31T13:57:28.705Z,98938.83
2023-01-31T14:02:36.255Z,98931.20
2023-01-31T14:07:43.910Z,98936.89
2023-01-31T14:13:11.361Z,98931.48
2023-01-31T14:18:38.921Z,98926.44
2023-01-31T14:23:49.704Z,98923.13
2023-01-31T14:28:56.830Z,98921.09
2023-01-31T14:34:03.634Z,98921.59
2023-01-31T14:39:42.704Z,98921.14
2023-01-31T14:45:03.941Z,98918.04
2023-01-31T14:50:25.551Z,98909.59
2023-01-31T14:55:58.352Z,98903.38
2023-01-31T15:01:10.089Z,98900.41
2023-01-31T15:06:24.703Z,98897.67
2023-01-31T15:11:43.731Z,98892.90
2023-01-31T15:16:59.479Z,98892.58
2023-01-31T15:22:12.463Z,98883.80
2023-01-31T15:27:24.505Z,98884.52
2023-01-31T15:32:40.772Z,98877.08
2023-01-31T15:37:55.813Z,98879.44
2023-01-31T15:43:22.921Z,98880.09
2023-01-31T15:48:30.316Z,98877.73
2023-01-31T15:53:37.734Z,98871.97
2023-01-31T15:58:49.951Z,98867.05
2023-01-31T16:04:00.228Z,98858.50
2023-01-31T16:09:23.948Z,98851.67
2023-01-31T16:14:31.940Z,98842.54
2023-01-31T16:19:39.375Z,98838.09
2023-01-31T16:24:59.100Z,98833.42
2023-01-31T16:30:08.921Z,98837.57
2023-01-31T16:35:25.212Z,98833.14
2023-01-31T16:40:35.824Z,98831.69
2023-01-31T16:45:54.301Z,98828.56
2023-01-31T16:51:22.869Z,98827.15
2023-01-31T16:56:30.066Z,98823.52
2023-01-31T17:01:36.174Z,98822.45
2023-01-31T17:06:46.583Z,98820.58
2023-01-31T17:11:56.913Z,98811.21
2023-01-31T17:20:58.907Z,98799.23
2023-01-31T17:26:06.622Z,98796.90
2023-01-31T17:31:21.326Z,98791.36
2023-01-31T17:36:28.973Z,98787.45
2023-01-31T17:41:36.507Z,98788.72
2023-01-31T17:46:44.687Z,98789.15
2023-01-31T17:51:53.033Z,98791.58
2023-01-31T17:57:01.485Z,98793.34
2023-01-31T18:02:08.974Z,98787.39
2023-01-31T18:07:19.801Z,98779.22
2023-01-31T18:12:30.419Z,98772.54
2023-01-31T18:17:38.062Z,98764.23
2023-01-31T18:22:46.598Z,98744.79
2023-01-31T18:27:54.170Z,98740.41
2023-01-31T18:33:01.776Z,98734.37
2023-01-31T18:38:09.640Z,98727.61
2023-01-31T18:43:17.572Z,98724.30
2023-01-31T18:48:25.189Z,98723.16
2023-01-31T18:53:35.372Z,98713.02
2023-01-31T18:58:46.560Z,98711.30
2023-01-31T19:03:55.552Z,98708.52
2023-01-31T19:09:04.239Z,98704.66
2023-01-31T19:14:16.185Z,98695.73
2023-01-31T19:19:23.845Z,98686.80
2023-01-31T19:24:31.482Z,98679.09
2023-01-31T19:29:40.320Z,98663.20
2023-01-31T19:34:48.044Z,98658.96
2023-01-31T19:39:55.441Z,98651.69
2023-01-31T19:45:02.957Z,98645.84
2023-01-31T19:50:13.052Z,98630.13
2023-01-31T19:55:20.661Z,98619.52
2023-01-31T20:00:28.523Z,98615.64
2023-01-31T20:05:36.913Z,98612.73
2023-01-31T20:10:44.677Z,98602.90
2023-01-31T20:16:00.284Z,98598.05
2023-01-31T20:21:09.323Z,98594.73
2023-01-31T20:26:20.943Z,98591.02
2023-01-31T20:31:28.430Z,98595.98
2023-01-31T20:36:36.335Z,98596.16
2023-01-31T20:41:44.468Z,98593.52
2023-01-31T20:46:51.622Z,98588.40
2023-01-31T20:51:57.505Z,98585.25
2023-01-31T20:57:05.041Z,98581.10
2023-01-31T21:02:14.677Z,98579.30
2023-01-31T21:07:22.119Z,98577.27
2023-01-31T21:12:29.576Z,98567.85
2023-01-31T21:17:40.449Z,98557.84
2023-01-31T21:22:49.334Z,98539.91
2023-01-31T21:27:56.937Z,98537.27
2023-01-31T21:33:04.955Z,98529.36
2023-01-31T21:38:13.089Z,98531.48
2023-01-31T21:43:21.940Z,98530.71
2023-01-31T21:48:32.445Z,98527.19
2023-01-31T21:53:41.094Z,98525.85
2023-01-31T21:58:50.177Z,98519.77
2023-01-31T22:03:59.646Z,98519.94
2023-01-31T22:09:08.987Z,98507.67
2023-01-31T22:14:18.225Z,98506.07
2023-01-31T22:19:25.741Z,98501.89
2023-01-31T22:24:34.887Z,98507.02
2023-01-31T22:29:43.424Z,98514.13
2023-01-31T22:34:51.331Z,98505.43
2023-01-31T22:39:59.686Z,98500.19
2023-01-31T22:45:09.027Z,98499.63
2023-01-31T22:50:17.614Z,98487.81
2023-01-31T22:55:27.726Z,98485.95
2023-01-31T23:00:35.765Z,98487.89
2023-01-31T23:05:45.229Z,98481.00
2023-01-31T23:10:52.885Z,98480.94
2023-01-31T23:16:00.598Z,98482.59
2023-01-31T23:21:14.616Z,98479.55
2023-01-31T23:26:22.317Z,98469.27
2023-01-31T23:31:29.977Z,98463.77
2023-01-31T23:36:37.502Z,98448.64
2023-01-31T23:41:44.785Z,98438.65
2023-01-31T23:46:53.164Z,98433.89
2023-01-31T23:52:00.701Z,98438.27
2023-01-31T23:57:08.293Z,98433.90
